Time;durP1;ratioP1;P1;durP2;ratioP2;P2;SDS_P1;SDS_P2;PMS_P1;PMS_P2;Temp;Humidity;BMP_temperature;BMP_pressure;BME280_temperature;BME280_humidity;BME280_pressure;Samples;Min_cycle;Max_cycle;Signal;HPM_P1;HPM_P2
2022/01/04 00:01:30;;;;;;;11.68;4.60;;;;;;;;;;5037432;28;20043;-74
2022/01/04 00:03:56;;;;;;;19.80;7.25;;;;;;;;;;5043993;28;20029;-75
2022/01/04 00:06:22;;;;;;;13.77;6.25;;;;;;;;;;5032382;28;20148;-76
2022/01/04 00:08:48;;;;;;;20.00;8.77;;;;;;;;;;5028604;28;20046;-75
2022/01/04 00:11:17;;;;;;;23.73;9.60;;;;;;;;;;5030173;28;20037;-76
2022/01/04 00:13:44;;;;;;;22.63;10.95;;;;;;;;;;5032836;28;20140;-75
2022/01/04 00:16:11;;;;;;;24.80;10.50;;;;;;;;;;5032090;28;20053;-75
2022/01/04 00:18:37;;;;;;;25.35;12.38;;;;;;;;;;5032925;28;20232;-75
2022/01/04 00:21:03;;;;;;;23.13;11.68;;;;;;;;;;5033108;28;20030;-75
2022/01/04 00:23:30;;;;;;;23.23;12.07;;;;;;;;;;5025251;28;20512;-75
2022/01/04 00:25:56;;;;;;;49.05;24.25;;;;;;;;;;5032243;28;20131;-75
2022/01/04 00:28:22;;;;;;;31.52;17.13;;;;;;;;;;5012817;28;20034;-75
2022/01/04 00:30:48;;;;;;;22.42;11.05;;;;;;;;;;5023400;28;20079;-75
2022/01/04 00:33:17;;;;;;;35.83;19.38;;;;;;;;;;5032719;28;20037;-75
2022/01/04 00:35:43;;;;;;;21.83;11.63;;;;;;;;;;5031581;28;20053;-75
2022/01/04 00:38:09;;;;;;;16.02;6.53;;;;;;;;;;5033358;28;20467;-75
2022/01/04 00:40:35;;;;;;;12.38;5.45;;;;;;;;;;5024781;28;20665;-75
2022/01/04 00:43:02;;;;;;;31.05;14.43;;;;;;;;;;5031608;28;20047;-75
2022/01/04 00:45:31;;;;;;;37.45;18.65;;;;;;;;;;5013251;28;20085;-75
2022/01/04 00:50:24;;;;;;;13.68;6.35;;;;;;;;;;5013547;28;20042;-75
2022/01/04 00:52:50;;;;;;;9.98;4.78;;;;;;;;;;5029105;28;20029;-76
2022/01/04 00:55:17;;;;;;;9.15;4.05;;;;;;;;;;5032177;28;20038;-75
2022/01/04 00:57:43;;;;;;;11.75;4.47;;;;;;;;;;5032164;28;20029;-75
2022/01/04 01:00:10;;;;;;;12.02;4.43;;;;;;;;;;5032288;28;20048;-75
2022/01/04 01:02:36;;;;;;;15.93;6.88;;;;;;;;;;5024627;28;20064;-74
2022/01/04 01:05:02;;;;;;;10.02;5.97;;;;;;;;;;5016122;28;20481;-75
2022/01/04 01:07:28;;;;;;;11.65;6.55;;;;;;;;;;5014542;28;20427;-75
2022/01/04 01:10:43;;;;;;;11.00;5.20;;;;;;;;;;5032261;28;20473;-75
2022/01/04 01:12:43;;;;;;;13.55;5.60;;;;;;;;;;5015080;28;20045;-75
2022/01/04 01:15:10;;;;;;;12.15;5.13;;;;;;;;;;5012253;28;20481;-74
2022/01/04 01:17:36;;;;;;;16.10;7.85;;;;;;;;;;5026789;28;20040;-75
2022/01/04 01:20:03;;;;;;;16.38;8.98;;;;;;;;;;5050691;28;20071;-76
2022/01/04 01:22:29;;;;;;;22.52;12.40;;;;;;;;;;5040427;28;20041;-75
2022/01/04 01:24:55;;;;;;;27.75;13.98;;;;;;;;;;5031274;28;20025;-75
2022/01/04 01:27:21;;;;;;;22.60;13.25;;;;;;;;;;5031787;28;20038;-75
2022/01/04 01:29:47;;;;;;;16.65;10.25;;;;;;;;;;5031144;28;20040;-75
2022/01/04 01:32:13;;;;;;;18.63;9.90;;;;;;;;;;5030347;28;20041;-75
2022/01/04 01:34:41;;;;;;;17.58;9.50;;;;;;;;;;5014383;28;20030;-75
2022/01/04 01:37:08;;;;;;;20.25;11.50;;;;;;;;;;5031327;28;20037;-75
2022/01/04 01:39:34;;;;;;;16.25;9.35;;;;;;;;;;5031358;28;20030;-75
2022/01/04 01:42:00;;;;;;;12.85;7.35;;;;;;;;;;5031358;28;20053;-75
2022/01/04 01:44:26;;;;;;;13.07;7.47;;;;;;;;;;5030748;28;20025;-75
2022/01/04 01:46:52;;;;;;;13.00;6.75;;;;;;;;;;5024998;28;20037;-74
2022/01/04 01:49:18;;;;;;;13.40;6.22;;;;;;;;;;5022284;28;20041;-75
2022/01/04 01:51:44;;;;;;;17.75;7.57;;;;;;;;;;5031602;28;20037;-75
2022/01/04 01:54:10;;;;;;;27.92;15.75;;;;;;;;;;5030481;28;20040;-76
2022/01/04 01:56:36;;;;;;;24.52;11.70;;;;;;;;;;5031253;28;20130;-75
2022/01/04 01:59:03;;;;;;;19.90;11.48;;;;;;;;;;5030676;28;20080;-75
2022/01/04 02:01:28;;;;;;;19.05;8.65;;;;;;;;;;5031013;28;20034;-75
2022/01/04 02:03:54;;;;;;;11.13;5.95;;;;;;;;;;5031078;28;20393;-75
2022/01/04 02:06:22;;;;;;;10.80;6.82;;;;;;;;;;5027689;28;20037;-75
2022/01/04 02:08:48;;;;;;;12.77;7.20;;;;;;;;;;5011700;28;20030;-75
2022/01/04 02:11:14;;;;;;;10.82;7.60;;;;;;;;;;5030517;28;20037;-75
2022/01/04 02:13:40;;;;;;;15.02;7.25;;;;;;;;;;5030830;28;20029;-75
2022/01/04 02:16:08;;;;;;;9.25;4.70;;;;;;;;;;5017526;28;20081;-75
2022/01/04 02:18:34;;;;;;;11.68;5.15;;;;;;;;;;5028531;28;20388;-75
2022/01/04 02:21:00;;;;;;;12.80;5.30;;;;;;;;;;5030282;28;20033;-75
2022/01/04 02:23:26;;;;;;;13.30;5.45;;;;;;;;;;5030770;28;20033;-75
2022/01/04 02:25:52;;;;;;;11.27;4.97;;;;;;;;;;5030213;28;20037;-75
2022/01/04 02:28:20;;;;;;;9.60;4.75;;;;;;;;;;5019098;28;20080;-75
2022/01/04 02:30:47;;;;;;;10.27;4.80;;;;;;;;;;5030094;28;20711;-76
2022/01/04 02:33:13;;;;;;;12.02;6.32;;;;;;;;;;5030121;28;20107;-75
2022/01/04 02:35:39;;;;;;;10.57;5.07;;;;;;;;;;5029931;28;20048;-75
2022/01/04 02:38:05;;;;;;;13.23;5.85;;;;;;;;;;5030562;28;20029;-75
2022/01/04 02:40:32;;;;;;;11.65;6.30;;;;;;;;;;5029777;28;20794;-75
2022/01/04 02:42:58;;;;;;;15.25;6.65;;;;;;;;;;5030275;28;20132;-75
2022/01/04 02:45:24;;;;;;;18.02;6.65;;;;;;;;;;5029886;28;20038;-75
2022/01/04 02:47:50;;;;;;;10.18;5.47;;;;;;;;;;5012414;28;20040;-75
2022/01/04 02:50:17;;;;;;;10.27;4.25;;;;;;;;;;5010464;28;20030;-75
2022/01/04 02:52:43;;;;;;;11.90;4.20;;;;;;;;;;5025754;28;20021;-75
2022/01/04 02:55:10;;;;;;;11.05;3.78;;;;;;;;;;5030461;28;20039;-75
2022/01/04 02:57:36;;;;;;;12.45;4.38;;;;;;;;;;5026708;28;20072;-75
2022/01/04 03:00:04;;;;;;;8.77;3.80;;;;;;;;;;5026392;28;20092;-75
2022/01/04 03:02:30;;;;;;;9.98;3.30;;;;;;;;;;5030545;28;20040;-75
2022/01/04 03:04:56;;;;;;;8.35;3.63;;;;;;;;;;5030280;28;20076;-75
2022/01/04 03:07:22;;;;;;;7.72;3.20;;;;;;;;;;5024393;28;20030;-75
2022/01/04 03:09:48;;;;;;;6.43;2.40;;;;;;;;;;5010322;28;20041;-75
2022/01/04 03:12:14;;;;;;;5.60;2.42;;;;;;;;;;5017286;28;20507;-75
2022/01/04 03:14:40;;;;;;;7.13;2.30;;;;;;;;;;5010653;28;20108;-75
2022/01/04 03:17:06;;;;;;;7.88;2.47;;;;;;;;;;5019694;28;20030;-76
2022/01/04 03:19:32;;;;;;;8.13;1.80;;;;;;;;;;5021673;28;20030;-75
2022/01/04 03:21:59;;;;;;;6.65;1.65;;;;;;;;;;5017031;28;20022;-75
2022/01/04 03:24:25;;;;;;;5.90;2.28;;;;;;;;;;5027509;28;20038;-75
2022/01/04 03:26:51;;;;;;;8.45;3.10;;;;;;;;;;5030196;28;20029;-75
2022/01/04 03:29:17;;;;;;;9.32;3.97;;;;;;;;;;5029729;28;20038;-74
2022/01/04 03:31:44;;;;;;;10.45;3.90;;;;;;;;;;5030246;28;20116;-75
2022/01/04 03:34:11;;;;;;;9.10;4.32;;;;;;;;;;5029956;28;20069;-75
2022/01/04 03:36:37;;;;;;;12.85;4.78;;;;;;;;;;5026292;28;20034;-75
2022/01/04 03:39:05;;;;;;;15.43;4.78;;;;;;;;;;5028991;28;20041;-75
2022/01/04 03:41:33;;;;;;;11.68;5.00;;;;;;;;;;5023016;28;20026;-75
2022/01/04 03:43:59;;;;;;;9.60;4.00;;;;;;;;;;5033261;28;20045;-75
2022/01/04 03:46:24;;;;;;;14.43;5.20;;;;;;;;;;5039533;28;20071;-75
2022/01/04 03:48:51;;;;;;;9.60;4.35;;;;;;;;;;5029071;28;20041;-75
2022/01/04 03:51:17;;;;;;;10.32;4.85;;;;;;;;;;5029773;28;20029;-75
2022/01/04 03:53:43;;;;;;;11.82;4.60;;;;;;;;;;5029199;28;20408;-75
2022/01/04 03:56:09;;;;;;;10.90;3.70;;;;;;;;;;5029670;28;20083;-75
2022/01/04 03:58:35;;;;;;;8.80;3.83;;;;;;;;;;5031997;28;20042;-75
2022/01/04 04:01:02;;;;;;;9.65;4.15;;;;;;;;;;5033637;28;20029;-76
2022/01/04 04:03:28;;;;;;;7.93;3.20;;;;;;;;;;5025396;28;20029;-75
2022/01/04 04:05:54;;;;;;;9.63;4.20;;;;;;;;;;5023785;28;20041;-75
2022/01/04 04:08:20;;;;;;;7.55;3.70;;;;;;;;;;5021410;28;20041;-75
2022/01/04 04:10:47;;;;;;;7.53;3.45;;;;;;;;;;5026455;28;20064;-75
2022/01/04 04:13:13;;;;;;;8.75;4.13;;;;;;;;;;5032930;28;20038;-75
2022/01/04 04:15:43;;;;;;;7.78;3.72;;;;;;;;;;5032242;28;20076;-75
2022/01/04 04:18:09;;;;;;;9.80;3.75;;;;;;;;;;5033038;28;20036;-75
2022/01/04 04:20:36;;;;;;;8.55;3.20;;;;;;;;;;5028913;28;20037;-74
2022/01/04 04:23:02;;;;;;;8.95;3.55;;;;;;;;;;5033638;28;20017;-75
2022/01/04 04:25:28;;;;;;;9.80;3.80;;;;;;;;;;5033180;28;20040;-75
2022/01/04 04:27:54;;;;;;;8.70;3.30;;;;;;;;;;5033464;28;20037;-75
2022/01/04 04:30:20;;;;;;;9.43;4.53;;;;;;;;;;5032675;28;20514;-75
2022/01/04 04:32:47;;;;;;;8.93;3.95;;;;;;;;;;5033073;28;20108;-75
2022/01/04 04:35:13;;;;;;;9.10;4.28;;;;;;;;;;5032332;28;20030;-76
2022/01/04 04:37:39;;;;;;;11.05;4.28;;;;;;;;;;5032889;28;20033;-75
2022/01/04 04:40:06;;;;;;;10.30;3.95;;;;;;;;;;5033120;28;20472;-75
2022/01/04 04:42:32;;;;;;;12.75;5.10;;;;;;;;;;5043031;28;20506;-75
2022/01/04 04:44:58;;;;;;;13.30;4.45;;;;;;;;;;5032267;28;20034;-76
2022/01/04 04:47:24;;;;;;;12.38;4.95;;;;;;;;;;5026120;28;20088;-75
2022/01/04 04:49:50;;;;;;;10.07;4.07;;;;;;;;;;5032550;28;20045;-75
2022/01/04 04:52:16;;;;;;;11.57;3.67;;;;;;;;;;5032499;28;20081;-75
2022/01/04 04:54:42;;;;;;;9.68;4.32;;;;;;;;;;5042055;28;20577;-75
2022/01/04 04:57:08;;;;;;;14.57;5.30;;;;;;;;;;5032001;28;20040;-75
2022/01/04 04:59:34;;;;;;;14.10;5.75;;;;;;;;;;5032172;28;20065;-76
2022/01/04 05:02:01;;;;;;;14.23;5.95;;;;;;;;;;5031893;28;20439;-75
2022/01/04 05:04:27;;;;;;;10.05;3.88;;;;;;;;;;5032188;28;20036;-75
2022/01/04 05:06:53;;;;;;;5.75;2.63;;;;;;;;;;5031813;28;20034;-76
2022/01/04 05:09:20;;;;;;;7.95;3.28;;;;;;;;;;5031184;28;20049;-76
2022/01/04 05:11:46;;;;;;;12.55;4.68;;;;;;;;;;5028421;28;20032;-76
2022/01/04 05:14:12;;;;;;;8.30;2.45;;;;;;;;;;5029970;28;20049;-75
2022/01/04 05:16:38;;;;;;;6.57;2.45;;;;;;;;;;5031426;28;20033;-75
2022/01/04 05:19:04;;;;;;;10.18;4.50;;;;;;;;;;5031870;28;20811;-76
2022/01/04 05:21:30;;;;;;;8.02;2.80;;;;;;;;;;5031967;28;20578;-75
2022/01/04 05:23:56;;;;;;;7.32;2.33;;;;;;;;;;5031890;28;20038;-75
2022/01/04 05:26:22;;;;;;;6.53;2.75;;;;;;;;;;5031179;28;20037;-76
2022/01/04 05:28:48;;;;;;;6.80;2.65;;;;;;;;;;5031852;28;20052;-75
2022/01/04 05:31:14;;;;;;;10.30;3.22;;;;;;;;;;5042341;28;20709;-75
2022/01/04 05:33:41;;;;;;;11.40;2.47;;;;;;;;;;5031660;28;20072;-75
2022/01/04 05:36:07;;;;;;;9.98;3.28;;;;;;;;;;5031177;28;20497;-75
2022/01/04 05:38:33;;;;;;;5.63;2.25;;;;;;;;;;5019568;28;20385;-75
2022/01/04 05:40:59;;;;;;;10.65;3.00;;;;;;;;;;5020934;28;20184;-75
2022/01/04 05:43:26;;;;;;;7.95;2.70;;;;;;;;;;5030749;28;20162;-75
2022/01/04 05:45:52;;;;;;;7.15;3.33;;;;;;;;;;5030789;28;20544;-75
2022/01/04 05:48:20;;;;;;;8.30;2.47;;;;;;;;;;5030223;28;20091;-75
2022/01/04 05:50:46;;;;;;;8.02;3.60;;;;;;;;;;5031418;28;20531;-75
2022/01/04 05:53:12;;;;;;;6.35;2.00;;;;;;;;;;5027529;28;20113;-75
2022/01/04 05:55:38;;;;;;;4.68;1.60;;;;;;;;;;5031295;28;20053;-75
2022/01/04 05:58:04;;;;;;;4.78;1.40;;;;;;;;;;5030823;28;20072;-74
2022/01/04 06:00:30;;;;;;;4.78;1.33;;;;;;;;;;5028918;28;20689;-75
2022/01/04 06:03:00;;;;;;;3.65;1.15;;;;;;;;;;5014729;28;20083;-75
2022/01/04 06:05:26;;;;;;;4.50;1.40;;;;;;;;;;5030188;28;20117;-75
2022/01/04 06:07:52;;;;;;;5.55;2.13;;;;;;;;;;5017017;28;20041;-75
2022/01/04 06:10:18;;;;;;;4.97;1.85;;;;;;;;;;5012040;28;20030;-74
2022/01/04 06:15:11;;;;;;;4.20;1.73;;;;;;;;;;5017197;28;20392;-75
2022/01/04 06:17:38;;;;;;;5.15;1.65;;;;;;;;;;5029999;28;20368;-75
2022/01/04 06:20:08;;;;;;;5.47;1.95;;;;;;;;;;5028766;28;20033;-75
2022/01/04 06:22:35;;;;;;;7.47;1.90;;;;;;;;;;5014053;28;20034;-75
2022/01/04 06:25:02;;;;;;;5.75;2.17;;;;;;;;;;5029590;28;20029;-75
2022/01/04 06:27:28;;;;;;;6.07;2.20;;;;;;;;;;5030464;28;20033;-74
2022/01/04 06:29:54;;;;;;;8.68;3.20;;;;;;;;;;5029206;28;20052;-75
2022/01/04 06:32:20;;;;;;;9.88;4.00;;;;;;;;;;5024796;28;20472;-76
2022/01/04 06:34:46;;;;;;;9.55;4.45;;;;;;;;;;5032047;28;20040;-76
2022/01/04 06:37:13;;;;;;;11.68;4.95;;;;;;;;;;5027714;28;20044;-76
2022/01/04 06:39:39;;;;;;;13.07;4.93;;;;;;;;;;5043624;28;20156;-76
2022/01/04 06:42:05;;;;;;;8.80;4.53;;;;;;;;;;5014566;28;20078;-76
2022/01/04 06:44:31;;;;;;;12.07;5.03;;;;;;;;;;5026808;28;20033;-76
2022/01/04 06:46:57;;;;;;;13.15;7.10;;;;;;;;;;5032518;28;20041;-76
2022/01/04 06:49:24;;;;;;;13.60;6.80;;;;;;;;;;5029486;28;20030;-76
2022/01/04 06:51:50;;;;;;;13.82;7.50;;;;;;;;;;5025974;28;20045;-76
2022/01/04 06:54:17;;;;;;;14.68;7.20;;;;;;;;;;5030146;28;20044;-75
2022/01/04 06:56:43;;;;;;;16.55;8.57;;;;;;;;;;5032040;28;20056;-75
2022/01/04 06:59:09;;;;;;;17.40;10.57;;;;;;;;;;5032015;28;20066;-75
2022/01/04 07:01:36;;;;;;;19.63;11.20;;;;;;;;;;5042523;28;20745;-76
2022/01/04 07:04:03;;;;;;;17.52;12.45;;;;;;;;;;5029555;28;20080;-76
2022/01/04 07:06:29;;;;;;;18.70;11.55;;;;;;;;;;5028364;28;20052;-75
2022/01/04 07:08:56;;;;;;;12.98;7.80;;;;;;;;;;5027397;28;20056;-75
2022/01/04 07:11:22;;;;;;;11.63;6.30;;;;;;;;;;5029029;28;20805;-76
2022/01/04 07:13:48;;;;;;;10.45;5.60;;;;;;;;;;5024309;28;20040;-76
2022/01/04 07:16:14;;;;;;;12.50;5.95;;;;;;;;;;5014704;28;20033;-75
2022/01/04 07:18:40;;;;;;;12.70;6.43;;;;;;;;;;5028970;28;20554;-76
2022/01/04 07:21:06;;;;;;;11.05;6.10;;;;;;;;;;5029294;28;20034;-76
2022/01/04 07:23:33;;;;;;;12.70;5.80;;;;;;;;;;5029033;28;20037;-75
2022/01/04 07:26:00;;;;;;;12.68;6.35;;;;;;;;;;5029982;28;20033;-76
2022/01/04 07:28:26;;;;;;;12.93;6.43;;;;;;;;;;5029105;28;20076;-76
2022/01/04 07:30:52;;;;;;;16.40;8.27;;;;;;;;;;5029901;28;20057;-76
2022/01/04 07:33:18;;;;;;;15.07;7.15;;;;;;;;;;5029464;28;20034;-76
2022/01/04 07:35:46;;;;;;;13.93;7.57;;;;;;;;;;5030725;28;20366;-76
2022/01/04 07:38:12;;;;;;;19.67;7.65;;;;;;;;;;5032910;28;20029;-75
2022/01/04 07:40:38;;;;;;;16.48;8.73;;;;;;;;;;5033575;28;20064;-76
2022/01/04 07:43:04;;;;;;;17.48;9.90;;;;;;;;;;5032550;28;20066;-76
2022/01/04 07:45:31;;;;;;;20.35;9.30;;;;;;;;;;5033624;28;20033;-75
2022/01/04 07:47:58;;;;;;;14.40;5.72;;;;;;;;;;5033378;28;20029;-75
2022/01/04 07:50:24;;;;;;;11.60;5.13;;;;;;;;;;5032988;28;20704;-76
2022/01/04 07:52:50;;;;;;;14.32;5.13;;;;;;;;;;5033401;28;20035;-75
2022/01/04 07:55:16;;;;;;;12.85;3.85;;;;;;;;;;5032704;28;20064;-75
2022/01/04 07:57:44;;;;;;;24.10;8.95;;;;;;;;;;5032196;28;20060;-75
2022/01/04 08:00:11;;;;;;;17.67;7.97;;;;;;;;;;5029151;28;20041;-76
2022/01/04 08:02:38;;;;;;;17.02;6.88;;;;;;;;;;5033210;28;20033;-76
2022/01/04 08:05:05;;;;;;;16.50;7.72;;;;;;;;;;5032785;28;20037;-76
2022/01/04 08:07:31;;;;;;;20.25;8.25;;;;;;;;;;5033457;28;20037;-76
2022/01/04 08:09:57;;;;;;;18.17;8.77;;;;;;;;;;5037961;28;20038;-75
2022/01/04 08:12:23;;;;;;;15.50;7.00;;;;;;;;;;5033299;28;20045;-75
2022/01/04 08:14:49;;;;;;;13.45;6.47;;;;;;;;;;5035634;28;20041;-76
2022/01/04 08:17:15;;;;;;;13.73;6.30;;;;;;;;;;5032951;28;20079;-76
2022/01/04 08:19:41;;;;;;;15.35;6.28;;;;;;;;;;5032210;28;20041;-76
2022/01/04 08:22:07;;;;;;;17.90;5.78;;;;;;;;;;5032914;28;20026;-75
2022/01/04 08:24:33;;;;;;;13.88;6.15;;;;;;;;;;5032344;28;20088;-76
2022/01/04 08:27:00;;;;;;;14.40;5.75;;;;;;;;;;5033158;28;20065;-76
2022/01/04 08:29:26;;;;;;;11.38;5.45;;;;;;;;;;5023920;28;20065;-75
2022/01/04 08:31:52;;;;;;;14.55;7.18;;;;;;;;;;5032005;28;20053;-76
2022/01/04 08:34:18;;;;;;;15.60;6.68;;;;;;;;;;5032326;28;20076;-76
2022/01/04 08:36:44;;;;;;;17.60;6.53;;;;;;;;;;5028135;28;20033;-76
2022/01/04 08:39:14;;;;;;;30.02;16.92;;;;;;;;;;5031898;28;20140;-76
2022/01/04 08:41:41;;;;;;;26.58;13.85;;;;;;;;;;5024058;28;20037;-76
2022/01/04 08:44:07;;;;;;;27.50;14.40;;;;;;;;;;5024670;28;20040;-76
2022/01/04 08:46:35;;;;;;;21.60;9.68;;;;;;;;;;5031783;28;20029;-76
2022/01/04 08:49:02;;;;;;;29.65;13.02;;;;;;;;;;5032314;28;20116;-76
2022/01/04 08:51:27;;;;;;;28.35;12.93;;;;;;;;;;5031336;28;20044;-75
2022/01/04 08:53:53;;;;;;;31.60;14.52;;;;;;;;;;5022324;28;20034;-75
2022/01/04 08:56:19;;;;;;;23.65;11.43;;;;;;;;;;5030625;28;20065;-76
2022/01/04 08:58:46;;;;;;;19.88;9.15;;;;;;;;;;5020250;28;20104;-75
2022/01/04 09:01:12;;;;;;;14.98;7.22;;;;;;;;;;5031524;28;20071;-76
2022/01/04 09:03:38;;;;;;;16.05;7.63;;;;;;;;;;5031839;28;20474;-76
2022/01/04 09:06:04;;;;;;;15.30;7.15;;;;;;;;;;5033855;28;20025;-76
2022/01/04 09:08:30;;;;;;;17.10;7.68;;;;;;;;;;5046091;28;20061;-75
2022/01/04 09:10:56;;;;;;;20.65;11.60;;;;;;;;;;5041536;28;20060;-76
2022/01/04 09:13:23;;;;;;;37.15;17.13;;;;;;;;;;5031916;28;20040;-76
2022/01/04 09:18:43;;;;;;;27.92;13.77;;;;;;;;;;5018347;28;20086;-76
2022/01/04 09:21:10;;;;;;;18.52;10.10;;;;;;;;;;5026966;28;20073;-76
2022/01/04 09:23:36;;;;;;;17.13;9.60;;;;;;;;;;5035109;28;20664;-76
2022/01/04 09:26:02;;;;;;;16.00;7.70;;;;;;;;;;5045333;28;20044;-75
2022/01/04 09:28:28;;;;;;;26.75;12.75;;;;;;;;;;5039707;28;20037;-76
2022/01/04 09:30:55;;;;;;;19.20;10.38;;;;;;;;;;5029791;28;20112;-76
2022/01/04 09:33:21;;;;;;;21.23;9.30;;;;;;;;;;5031398;28;20117;-76
2022/01/04 09:35:49;;;;;;;21.80;9.27;;;;;;;;;;5030716;28;20480;-76
2022/01/04 09:38:16;;;;;;;45.72;20.13;;;;;;;;;;5031290;28;20492;-76
2022/01/04 09:40:42;;;;;;;31.10;13.98;;;;;;;;;;5023948;28;20372;-76
2022/01/04 09:43:09;;;;;;;23.85;10.95;;;;;;;;;;5042473;28;20503;-76
2022/01/04 09:45:35;;;;;;;19.75;9.98;;;;;;;;;;5044221;28;20026;-76
2022/01/04 09:48:01;;;;;;;22.02;11.23;;;;;;;;;;5014588;28;20567;-76
2022/01/04 09:50:27;;;;;;;19.67;10.60;;;;;;;;;;5031252;28;20033;-76
2022/01/04 09:52:55;;;;;;;22.83;10.48;;;;;;;;;;5032764;28;20377;-76
2022/01/04 09:55:21;;;;;;;19.63;9.65;;;;;;;;;;5025618;28;20030;-76
2022/01/04 09:57:47;;;;;;;19.95;9.82;;;;;;;;;;5031796;28;20037;-76
2022/01/04 10:00:15;;;;;;;19.80;10.25;;;;;;;;;;5030690;28;20057;-76
2022/01/04 10:02:44;;;;;;;18.27;9.13;;;;;;;;;;5028236;28;20029;-76
2022/01/04 10:05:25;;;;;;;18.42;9.63;;;;;;;;;;5029206;28;20033;-76
2022/01/04 10:08:00;;;;;;;18.83;9.65;;;;;;;;;;5023825;28;20120;-76
2022/01/04 10:10:26;;;;;;;22.85;10.38;;;;;;;;;;5015927;28;20084;-76
2022/01/04 10:13:00;;;;;;;20.55;9.93;;;;;;;;;;5029800;28;20830;-76
2022/01/04 10:15:43;;;;;;;20.35;9.48;;;;;;;;;;5012976;28;20480;-76
2022/01/04 10:18:18;;;;;;;19.08;9.80;;;;;;;;;;5026079;28;20083;-75
2022/01/04 10:20:48;;;;;;;33.80;15.32;;;;;;;;;;5029656;28;20057;-76
2022/01/04 10:23:18;;;;;;;21.90;9.70;;;;;;;;;;5022392;28;20057;-76
2022/01/04 10:25:45;;;;;;;17.00;8.63;;;;;;;;;;5030838;28;20068;-76
2022/01/04 10:28:11;;;;;;;14.30;7.70;;;;;;;;;;5033342;28;20037;-76
2022/01/04 10:30:44;;;;;;;17.13;8.10;;;;;;;;;;5033687;28;20040;-76
2022/01/04 10:33:14;;;;;;;10.88;4.68;;;;;;;;;;5023057;28;20057;-76
2022/01/04 10:35:41;;;;;;;9.80;4.28;;;;;;;;;;5022023;28;20034;-76
2022/01/04 10:38:10;;;;;;;13.45;5.60;;;;;;;;;;5038154;28;20026;-76
2022/01/04 10:40:37;;;;;;;14.13;5.60;;;;;;;;;;5038851;28;20029;-76
2022/01/04 10:43:07;;;;;;;10.85;5.60;;;;;;;;;;5029353;28;20051;-76
2022/01/04 10:45:34;;;;;;;6.30;2.30;;;;;;;;;;5028542;28;20037;-76
2022/01/04 10:48:11;;;;;;;7.80;2.83;;;;;;;;;;5029957;28;20025;-76
2022/01/04 10:50:37;;;;;;;8.32;4.20;;;;;;;;;;5029868;28;20388;-76
2022/01/04 10:53:04;;;;;;;15.20;7.20;;;;;;;;;;5029843;28;20035;-76
2022/01/04 10:55:37;;;;;;;12.15;5.15;;;;;;;;;;5030002;28;20045;-76
2022/01/04 10:58:04;;;;;;;3.55;1.10;;;;;;;;;;5029969;28;20034;-76
2022/01/04 11:00:31;;;;;;;9.85;4.65;;;;;;;;;;5024032;28;20163;-76
2022/01/04 11:03:02;;;;;;;17.30;7.35;;;;;;;;;;5029426;28;20062;-76
2022/01/04 11:05:29;;;;;;;11.40;4.78;;;;;;;;;;5033403;28;20068;-76
2022/01/04 11:08:00;;;;;;;11.38;5.35;;;;;;;;;;5032456;28;20060;-76
2022/01/04 11:10:28;;;;;;;13.52;5.35;;;;;;;;;;5020779;28;20041;-76
2022/01/04 11:12:55;;;;;;;12.73;4.57;;;;;;;;;;5033599;28;20029;-76
2022/01/04 11:15:22;;;;;;;15.40;6.00;;;;;;;;;;5019694;28;20069;-76
2022/01/04 11:17:48;;;;;;;19.58;5.47;;;;;;;;;;5031247;28;20033;-76
2022/01/04 11:20:14;;;;;;;14.68;4.78;;;;;;;;;;5033167;28;20061;-76
2022/01/04 11:22:40;;;;;;;9.88;3.42;;;;;;;;;;5033581;28;20064;-76
2022/01/04 11:25:07;;;;;;;12.45;4.47;;;;;;;;;;5030763;28;20045;-76
2022/01/04 11:27:35;;;;;;;13.50;5.13;;;;;;;;;;5028496;28;20033;-76
2022/01/04 11:30:03;;;;;;;16.35;7.60;;;;;;;;;;5033584;28;20076;-76
2022/01/04 11:32:31;;;;;;;13.23;6.22;;;;;;;;;;5033591;28;20030;-76
2022/01/04 11:35:12;;;;;;;12.77;5.43;;;;;;;;;;5030374;28;20030;-76
2022/01/04 11:37:41;;;;;;;12.52;4.13;;;;;;;;;;5015944;28;20446;-76
2022/01/04 11:40:28;;;;;;;2.45;0.55;;;;;;;;;;5030183;28;20080;-76
2022/01/04 11:42:54;;;;;;;1.80;0.60;;;;;;;;;;5031388;28;20045;-76
2022/01/04 11:45:39;;;;;;;9.32;3.35;;;;;;;;;;5022366;28;20044;-76
2022/01/04 11:48:24;;;;;;;4.57;1.17;;;;;;;;;;5031382;28;20388;-76
2022/01/04 11:50:50;;;;;;;17.83;5.72;;;;;;;;;;5029521;28;20060;-76
2022/01/04 11:53:16;;;;;;;12.50;5.45;;;;;;;;;;5013183;28;20025;-76
2022/01/04 11:55:48;;;;;;;11.82;4.93;;;;;;;;;;5031049;28;20040;-76
2022/01/04 11:58:20;;;;;;;13.18;5.40;;;;;;;;;;5026275;28;20037;-76
2022/01/04 12:00:56;;;;;;;10.93;4.80;;;;;;;;;;5016913;28;20029;-76
2022/01/04 12:03:35;;;;;;;10.65;4.95;;;;;;;;;;5029031;28;20040;-76
2022/01/04 12:06:02;;;;;;;7.88;2.50;;;;;;;;;;5023655;28;20026;-75
2022/01/04 12:08:35;;;;;;;9.48;2.30;;;;;;;;;;5013125;28;20030;-76
2022/01/04 12:11:02;;;;;;;15.85;4.78;;;;;;;;;;5031442;28;20041;-76
2022/01/04 12:13:48;;;;;;;12.32;4.60;;;;;;;;;;5038624;28;20037;-76
2022/01/04 12:16:15;;;;;;;8.82;3.67;;;;;;;;;;5037249;28;20122;-76
2022/01/04 12:18:40;;;;;;;9.90;3.28;;;;;;;;;;5035623;28;20034;-76
2022/01/04 12:21:13;;;;;;;9.70;3.53;;;;;;;;;;5017048;28;20041;-76
2022/01/04 12:23:39;;;;;;;8.68;4.07;;;;;;;;;;5029030;28;20067;-76
2022/01/04 12:26:05;;;;;;;8.32;3.50;;;;;;;;;;5032304;28;20176;-76
2022/01/04 12:28:32;;;;;;;11.90;4.15;;;;;;;;;;5032656;28;20491;-76
2022/01/04 12:31:15;;;;;;;17.55;8.63;;;;;;;;;;5029808;28;20488;-76
2022/01/04 12:33:52;;;;;;;9.98;5.28;;;;;;;;;;5017802;28;20037;-76
2022/01/04 12:36:38;;;;;;;13.27;5.45;;;;;;;;;;5020315;28;20051;-76
2022/01/04 12:39:05;;;;;;;12.07;4.63;;;;;;;;;;5012911;28;20049;-76
2022/01/04 12:41:32;;;;;;;8.93;4.35;;;;;;;;;;5023713;28;20034;-76
2022/01/04 12:43:59;;;;;;;7.60;2.53;;;;;;;;;;5032422;28;20820;-76
2022/01/04 12:46:29;;;;;;;7.68;2.92;;;;;;;;;;5037320;28;20033;-76
2022/01/04 12:48:56;;;;;;;9.48;2.00;;;;;;;;;;5030620;28;20112;-76
2022/01/04 12:51:23;;;;;;;7.97;3.30;;;;;;;;;;5028475;28;20575;-76
2022/01/04 12:53:49;;;;;;;10.80;5.30;;;;;;;;;;5024791;28;20128;-76
2022/01/04 12:56:15;;;;;;;13.02;6.45;;;;;;;;;;5031186;28;20037;-76
2022/01/04 12:58:41;;;;;;;11.05;4.75;;;;;;;;;;5024923;28;20026;-76
2022/01/04 13:01:07;;;;;;;13.13;5.70;;;;;;;;;;5031352;28;20029;-76
2022/01/04 13:03:33;;;;;;;7.97;3.45;;;;;;;;;;5031654;28;20397;-76
2022/01/04 13:06:04;;;;;;;7.95;2.10;;;;;;;;;;5030102;28;20484;-76
2022/01/04 13:08:35;;;;;;;7.28;2.40;;;;;;;;;;5012040;28;20527;-76
2022/01/04 13:11:08;;;;;;;12.20;4.75;;;;;;;;;;5028658;28;20033;-76
2022/01/04 13:13:34;;;;;;;11.43;5.03;;;;;;;;;;5034882;28;20040;-76
2022/01/04 13:16:20;;;;;;;14.95;5.90;;;;;;;;;;5030892;28;20041;-76
2022/01/04 13:18:48;;;;;;;11.40;3.83;;;;;;;;;;5031666;28;20104;-75
2022/01/04 13:21:14;;;;;;;13.05;6.28;;;;;;;;;;5031253;28;20526;-76
2022/01/04 13:23:41;;;;;;;16.95;6.65;;;;;;;;;;5031618;28;20560;-76
2022/01/04 13:26:11;;;;;;;20.20;10.13;;;;;;;;;;5031009;28;20044;-76
2022/01/04 13:28:37;;;;;;;13.93;7.03;;;;;;;;;;5031355;28;20068;-76
2022/01/04 13:31:03;;;;;;;10.05;4.35;;;;;;;;;;5030116;28;20037;-76
2022/01/04 13:33:29;;;;;;;10.77;4.03;;;;;;;;;;5031435;28;20140;-76
2022/01/04 13:35:57;;;;;;;11.68;4.05;;;;;;;;;;5031070;28;20061;-76
2022/01/04 13:38:26;;;;;;;8.98;2.80;;;;;;;;;;5031565;28;20458;-76
2022/01/04 13:40:53;;;;;;;8.20;3.85;;;;;;;;;;5027163;28;20022;-76
2022/01/04 13:43:26;;;;;;;14.32;5.68;;;;;;;;;;5018032;28;20056;-76
2022/01/04 13:45:54;;;;;;;8.98;3.65;;;;;;;;;;5028265;28;20037;-76
2022/01/04 13:48:26;;;;;;;11.32;3.88;;;;;;;;;;5020525;28;20381;-76
2022/01/04 13:50:52;;;;;;;12.88;4.30;;;;;;;;;;5031862;28;20107;-76
2022/01/04 13:53:19;;;;;;;10.93;3.92;;;;;;;;;;5043221;28;20061;-76
2022/01/04 13:55:58;;;;;;;13.10;3.38;;;;;;;;;;5029893;28;20033;-76
2022/01/04 13:58:33;;;;;;;9.05;3.40;;;;;;;;;;5040854;28;20060;-76
2022/01/04 14:01:09;;;;;;;15.02;5.85;;;;;;;;;;5030561;28;20408;-76
2022/01/04 14:03:35;;;;;;;24.40;11.27;;;;;;;;;;5030184;28;20036;-76
2022/01/04 14:06:02;;;;;;;19.73;9.75;;;;;;;;;;5030259;28;20040;-76
2022/01/04 14:08:47;;;;;;;11.60;5.95;;;;;;;;;;5041878;28;20033;-76
2022/01/04 14:11:21;;;;;;;14.48;5.05;;;;;;;;;;5028397;28;20044;-76
2022/01/04 14:13:48;;;;;;;11.05;4.80;;;;;;;;;;5028005;28;20468;-76
2022/01/04 14:16:15;;;;;;;14.63;4.57;;;;;;;;;;5049983;28;20078;-76
2022/01/04 14:18:59;;;;;;;12.88;4.80;;;;;;;;;;5010864;28;20044;-76
2022/01/04 14:21:33;;;;;;;24.63;11.68;;;;;;;;;;5029469;28;20498;-76
2022/01/04 14:23:59;;;;;;;16.73;7.82;;;;;;;;;;5029201;28;20449;-76
2022/01/04 14:26:25;;;;;;;11.55;2.95;;;;;;;;;;5030302;28;20037;-75
2022/01/04 14:28:51;;;;;;;10.13;3.63;;;;;;;;;;5024970;28;20117;-76
2022/01/04 14:31:19;;;;;;;11.82;4.63;;;;;;;;;;5030485;28;20053;-76
2022/01/04 14:33:45;;;;;;;8.00;2.47;;;;;;;;;;5029739;28;20025;-75
2022/01/04 14:36:11;;;;;;;12.50;3.40;;;;;;;;;;5030097;28;20048;-76
2022/01/04 14:38:37;;;;;;;12.85;3.28;;;;;;;;;;5043491;28;20029;-76
2022/01/04 14:41:03;;;;;;;10.43;3.80;;;;;;;;;;5037016;28;20030;-76